sensor_id;sensor_type;location;lat;lon;timestamp;pressure;altitude;pressure_sealevel;temperature;humidity
54417;BME280;40326;51.220;7.250;2022-09-13T00:01:29;97858.19;;;15.89;100.00
54417;BME280;40326;51.220;7.250;2022-09-13T00:03:54;97870.34;;;15.98;100.00
54417;BME280;40326;51.220;7.250;2022-09-13T00:06:20;97862.00;;;15.74;100.00
54417;BME280;40326;51.220;7.250;2022-09-13T00:08:46;97874.56;;;15.67;100.00
54417;BME280;40326;51.220;7.250;2022-09-13T00:11:23;97872.94;;;15.55;100.00
54417;BME280;40326;51.220;7.250;2022-09-13T00:13:49;97882.69;;;15.40;100.00
54417;BME280;40326;51.220;7.250;2022-09-13T00:16:17;97894.75;;;15.17;100.00
54417;BME280;40326;51.220;7.250;2022-09-13T00:18:43;97897.56;;;15.03;100.00
54417;BME280;40326;51.220;7.250;2022-09-13T00:21:11;97909.72;;;14.79;100.00
54417;BME280;40326;51.220;7.250;2022-09-13T00:23:37;97915.69;;;14.79;100.00
54417;BME280;40326;51.220;7.250;2022-09-13T00:26:05;97911.22;;;14.70;100.00
54417;BME280;40326;51.220;7.250;2022-09-13T00:28:30;97903.22;;;14.62;100.00
54417;BME280;40326;51.220;7.250;2022-09-13T00:30:59;97892.22;;;14.60;100.00
54417;BME280;40326;51.220;7.250;2022-09-13T00:33:24;97887.91;;;14.60;100.00
54417;BME280;40326;51.220;7.250;2022-09-13T00:35:50;97873.38;;;14.59;100.00
54417;BME280;40326;51.220;7.250;2022-09-13T00:38:15;97872.13;;;14.65;100.00
54417;BME280;40326;51.220;7.250;2022-09-13T00:40:40;97860.19;;;14.86;100.00
54417;BME280;40326;51.220;7.250;2022-09-13T00:43:15;97853.16;;;14.99;100.00
54417;BME280;40326;51.220;7.250;2022-09-13T00:45:40;97847.78;;;15.02;100.00
54417;BME280;40326;51.220;7.250;2022-09-13T00:48:07;97852.44;;;15.20;100.00
54417;BME280;40326;51.220;7.250;2022-09-13T00:50:40;97856.66;;;15.10;100.00
54417;BME280;40326;51.220;7.250;2022-09-13T00:55:42;97853.41;;;15.19;100.00
54417;BME280;40326;51.220;7.250;2022-09-13T00:58:24;97858.06;;;15.14;100.00
54417;BME280;40326;51.220;7.250;2022-09-13T01:00:51;97867.63;;;15.45;100.00
54417;BME280;40326;51.220;7.250;2022-09-13T01:03:18;97865.56;;;15.39;100.00
54417;BME280;40326;51.220;7.250;2022-09-13T01:05:51;97863.44;;;15.33;100.00
54417;BME280;40326;51.220;7.250;2022-09-13T01:08:18;97867.09;;;15.19;100.00
54417;BME280;40326;51.220;7.250;2022-09-13T01:10:48;97869.56;;;15.21;100.00
54417;BME280;40326;51.220;7.250;2022-09-13T01:13:31;97862.28;;;15.26;100.00
54417;BME280;40326;51.220;7.250;2022-09-13T01:15:59;97867.69;;;15.23;100.00
54417;BME280;40326;51.220;7.250;2022-09-13T01:18:24;97872.94;;;15.32;100.00
54417;BME280;40326;51.220;7.250;2022-09-13T01:26:18;97868.34;;;15.36;100.00
54417;BME280;40326;51.220;7.250;2022-09-13T01:31:28;97854.16;;;15.53;100.00
54417;BME280;40326;51.220;7.250;2022-09-13T01:36:35;97841.31;;;15.85;100.00
54417;BME280;40326;51.220;7.250;2022-09-13T01:39:07;97830.81;;;15.98;100.00
54417;BME280;40326;51.220;7.250;2022-09-13T01:41:52;97826.94;;;16.03;100.00
54417;BME280;40326;51.220;7.250;2022-09-13T01:48:05;97809.94;;;16.22;100.00
54417;BME280;40326;51.220;7.250;2022-09-13T01:50:24;97815.97;;;16.32;100.00
54417;BME280;40326;51.220;7.250;2022-09-13T01:52:56;97810.00;;;16.31;100.00
54417;BME280;40326;51.220;7.250;2022-09-13T01:55:46;97807.84;;;16.36;100.00
54417;BME280;40326;51.220;7.250;2022-09-13T01:58:20;97805.91;;;16.29;100.00
54417;BME280;40326;51.220;7.250;2022-09-13T02:01:08;97806.50;;;16.42;100.00
54417;BME280;40326;51.220;7.250;2022-09-13T02:03:47;97800.22;;;16.35;100.00
54417;BME280;40326;51.220;7.250;2022-09-13T02:06:22;97793.38;;;16.45;100.00
54417;BME280;40326;51.220;7.250;2022-09-13T02:09:02;97787.53;;;16.53;100.00
54417;BME280;40326;51.220;7.250;2022-09-13T02:11:30;97787.56;;;16.62;100.00
54417;BME280;40326;51.220;7.250;2022-09-13T02:14:03;97787.84;;;16.59;100.00
54417;BME280;40326;51.220;7.250;2022-09-13T02:16:42;97790.78;;;16.45;100.00
54417;BME280;40326;51.220;7.250;2022-09-13T02:19:14;97801.16;;;16.34;100.00
54417;BME280;40326;51.220;7.250;2022-09-13T02:21:45;97793.94;;;16.28;100.00
54417;BME280;40326;51.220;7.250;2022-09-13T02:24:15;97796.38;;;16.29;100.00
54417;BME280;40326;51.220;7.250;2022-09-13T02:26:44;97792.03;;;16.30;100.00
54417;BME280;40326;51.220;7.250;2022-09-13T02:29:14;97802.06;;;16.23;100.00
54417;BME280;40326;51.220;7.250;2022-09-13T02:31:46;97798.38;;;16.26;100.00
54417;BME280;40326;51.220;7.250;2022-09-13T02:34:20;97797.22;;;16.30;100.00
54417;BME280;40326;51.220;7.250;2022-09-13T02:36:46;97800.41;;;16.43;100.00
54417;BME280;40326;51.220;7.250;2022-09-13T02:39:18;97799.97;;;16.38;100.00
54417;BME280;40326;51.220;7.250;2022-09-13T02:41:55;97802.38;;;16.30;100.00
54417;BME280;40326;51.220;7.250;2022-09-13T02:44:23;97800.97;;;16.26;100.00
54417;BME280;40326;51.220;7.250;2022-09-13T02:49:51;97789.19;;;16.33;100.00
54417;BME280;40326;51.220;7.250;2022-09-13T02:55:43;97793.03;;;16.38;100.00
54417;BME280;40326;51.220;7.250;2022-09-13T02:58:25;97788.28;;;16.43;100.00
54417;BME280;40326;51.220;7.250;2022-09-13T03:00:55;97787.28;;;16.35;100.00
54417;BME280;40326;51.220;7.250;2022-09-13T03:03:20;97786.44;;;16.45;100.00
54417;BME280;40326;51.220;7.250;2022-09-13T03:05:45;97792.16;;;16.49;100.00
54417;BME280;40326;51.220;7.250;2022-09-13T03:08:12;97786.09;;;16.39;100.00
54417;BME280;40326;51.220;7.250;2022-09-13T03:10:48;97788.44;;;16.42;100.00
54417;BME280;40326;51.220;7.250;2022-09-13T03:19:16;97805.34;;;16.46;100.00
54417;BME280;40326;51.220;7.250;2022-09-13T03:24:21;97813.25;;;16.54;100.00
54417;BME280;40326;51.220;7.250;2022-09-13T03:29:54;97809.91;;;16.63;100.00
54417;BME280;40326;51.220;7.250;2022-09-13T03:35:26;97800.69;;;16.70;100.00
54417;BME280;40326;51.220;7.250;2022-09-13T03:40:33;97798.56;;;16.76;100.00
54417;BME280;40326;51.220;7.250;2022-09-13T03:43:05;97801.41;;;16.72;100.00
54417;BME280;40326;51.220;7.250;2022-09-13T03:45:38;97787.44;;;16.85;100.00
54417;BME280;40326;51.220;7.250;2022-09-13T03:48:05;97796.16;;;16.84;100.00
54417;BME280;40326;51.220;7.250;2022-09-13T03:50:32;97788.53;;;16.82;100.00
54417;BME280;40326;51.220;7.250;2022-09-13T03:53:07;97781.59;;;16.83;100.00
54417;BME280;40326;51.220;7.250;2022-09-13T03:55:38;97788.53;;;16.82;100.00
54417;BME280;40326;51.220;7.250;2022-09-13T03:58:04;97782.59;;;16.70;100.00
54417;BME280;40326;51.220;7.250;2022-09-13T04:00:30;97798.94;;;16.50;100.00
54417;BME280;40326;51.220;7.250;2022-09-13T04:02:56;97800.09;;;16.36;100.00
54417;BME280;40326;51.220;7.250;2022-09-13T04:05:21;97805.44;;;16.24;100.00
54417;BME280;40326;51.220;7.250;2022-09-13T04:07:46;97811.69;;;16.21;100.00
54417;BME280;40326;51.220;7.250;2022-09-13T04:10:12;97819.59;;;16.08;100.00
54417;BME280;40326;51.220;7.250;2022-09-13T04:12:38;97816.34;;;16.06;100.00
54417;BME280;40326;51.220;7.250;2022-09-13T04:15:06;97833.31;;;15.88;100.00
54417;BME280;40326;51.220;7.250;2022-09-13T04:17:31;97836.75;;;15.77;100.00
54417;BME280;40326;51.220;7.250;2022-09-13T04:19:56;97830.56;;;15.69;100.00
54417;BME280;40326;51.220;7.250;2022-09-13T04:22:22;97843.00;;;15.75;100.00
54417;BME280;40326;51.220;7.250;2022-09-13T04:24:47;97838.19;;;15.59;100.00
54417;BME280;40326;51.220;7.250;2022-09-13T04:27:12;97851.09;;;15.59;100.00
54417;BME280;40326;51.220;7.250;2022-09-13T04:29:37;97851.44;;;15.54;100.00
54417;BME280;40326;51.220;7.250;2022-09-13T04:32:03;97849.59;;;15.56;100.00
54417;BME280;40326;51.220;7.250;2022-09-13T04:34:28;97847.22;;;15.53;100.00
54417;BME280;40326;51.220;7.250;2022-09-13T04:36:56;97851.00;;;15.49;100.00
54417;BME280;40326;51.220;7.250;2022-09-13T04:39:21;97861.19;;;15.51;100.00
54417;BME280;40326;51.220;7.250;2022-09-13T04:41:48;97868.97;;;15.40;100.00
54417;BME280;40326;51.220;7.250;2022-09-13T04:44:15;97859.47;;;15.40;100.00
54417;BME280;40326;51.220;7.250;2022-09-13T04:46:41;97860.75;;;15.46;100.00
54417;BME280;40326;51.220;7.250;2022-09-13T04:49:08;97869.31;;;15.46;100.00
54417;BME280;40326;51.220;7.250;2022-09-13T04:51:34;97873.19;;;15.41;100.00
54417;BME280;40326;51.220;7.250;2022-09-13T04:53:59;97881.72;;;15.41;100.00
54417;BME280;40326;51.220;7.250;2022-09-13T04:56:25;97889.72;;;15.38;100.00
54417;BME280;40326;51.220;7.250;2022-09-13T04:58:52;97889.13;;;15.34;100.00
54417;BME280;40326;51.220;7.250;2022-09-13T05:01:18;97885.97;;;15.31;100.00
54417;BME280;40326;51.220;7.250;2022-09-13T05:03:43;97902.38;;;15.30;100.00
54417;BME280;40326;51.220;7.250;2022-09-13T05:06:15;97899.81;;;15.30;100.00
54417;BME280;40326;51.220;7.250;2022-09-13T05:08:44;97905.19;;;15.27;100.00
54417;BME280;40326;51.220;7.250;2022-09-13T05:11:13;97904.97;;;15.30;100.00
54417;BME280;40326;51.220;7.250;2022-09-13T05:13:38;97916.31;;;15.27;100.00
54417;BME280;40326;51.220;7.250;2022-09-13T05:16:05;97925.13;;;15.25;100.00
54417;BME280;40326;51.220;7.250;2022-09-13T05:18:33;97919.97;;;15.14;100.00
54417;BME280;40326;51.220;7.250;2022-09-13T05:20:59;97927.47;;;15.28;100.00
54417;BME280;40326;51.220;7.250;2022-09-13T05:23:26;97923.25;;;15.38;100.00
54417;BME280;40326;51.220;7.250;2022-09-13T05:25:56;97900.94;;;15.59;100.00
54417;BME280;40326;51.220;7.250;2022-09-13T05:28:23;97872.56;;;15.71;100.00
54417;BME280;40326;51.220;7.250;2022-09-13T05:30:59;97857.75;;;15.84;100.00
54417;BME280;40326;51.220;7.250;2022-09-13T05:33:27;97862.66;;;15.87;100.00
54417;BME280;40326;51.220;7.250;2022-09-13T05:35:53;97844.19;;;16.03;100.00
54417;BME280;40326;51.220;7.250;2022-09-13T05:38:19;97818.75;;;16.19;100.00
54417;BME280;40326;51.220;7.250;2022-09-13T05:40:45;97816.25;;;16.29;100.00
54417;BME280;40326;51.220;7.250;2022-09-13T05:43:12;97814.59;;;16.28;100.00
54417;BME280;40326;51.220;7.250;2022-09-13T05:45:38;97819.25;;;16.34;100.00
54417;BME280;40326;51.220;7.250;2022-09-13T05:48:04;97812.81;;;16.49;100.00
54417;BME280;40326;51.220;7.250;2022-09-13T05:50:29;97799.81;;;16.60;100.00
54417;BME280;40326;51.220;7.250;2022-09-13T05:52:55;97799.66;;;16.73;100.00
54417;BME280;40326;51.220;7.250;2022-09-13T05:55:21;97792.63;;;16.85;100.00
54417;BME280;40326;51.220;7.250;2022-09-13T05:57:47;97797.81;;;16.94;100.00
54417;BME280;40326;51.220;7.250;2022-09-13T06:00:14;97794.41;;;16.94;100.00
54417;BME280;40326;51.220;7.250;2022-09-13T06:02:40;97791.72;;;17.05;100.00
54417;BME280;40326;51.220;7.250;2022-09-13T06:05:09;97795.53;;;17.01;100.00
54417;BME280;40326;51.220;7.250;2022-09-13T06:07:35;97794.34;;;17.24;100.00
54417;BME280;40326;51.220;7.250;2022-09-13T06:10:01;97802.81;;;17.26;100.00
54417;BME280;40326;51.220;7.250;2022-09-13T06:12:26;97791.69;;;17.36;100.00
54417;BME280;40326;51.220;7.250;2022-09-13T06:14:51;97785.13;;;17.51;100.00
54417;BME280;40326;51.220;7.250;2022-09-13T06:17:17;97782.84;;;17.57;100.00
54417;BME280;40326;51.220;7.250;2022-09-13T06:19:42;97793.56;;;17.43;100.00
54417;BME280;40326;51.220;7.250;2022-09-13T06:22:08;97790.06;;;17.54;100.00
54417;BME280;40326;51.220;7.250;2022-09-13T06:24:34;97786.53;;;17.55;100.00
54417;BME280;40326;51.220;7.250;2022-09-13T06:27:02;97783.97;;;17.74;100.00
54417;BME280;40326;51.220;7.250;2022-09-13T06:29:27;97781.22;;;18.05;100.00
54417;BME280;40326;51.220;7.250;2022-09-13T06:31:52;97777.81;;;18.14;100.00
54417;BME280;40326;51.220;7.250;2022-09-13T06:34:18;97772.59;;;18.24;100.00
54417;BME280;40326;51.220;7.250;2022-09-13T06:36:43;97787.75;;;18.28;100.00
54417;BME280;40326;51.220;7.250;2022-09-13T06:39:09;97782.47;;;18.01;100.00
54417;BME280;40326;51.220;7.250;2022-09-13T06:41:36;97790.63;;;18.25;100.00
54417;BME280;40326;51.220;7.250;2022-09-13T06:44:03;97785.69;;;18.32;100.00
54417;BME280;40326;51.220;7.250;2022-09-13T06:46:31;97779.13;;;18.37;100.00
54417;BME280;40326;51.220;7.250;2022-09-13T06:49:03;97779.13;;;18.37;100.00
54417;BME280;40326;51.220;7.250;2022-09-13T06:51:29;97770.41;;;18.38;100.00
54417;BME280;40326;51.220;7.250;2022-09-13T06:53:55;97768.59;;;18.49;100.00
54417;BME280;40326;51.220;7.250;2022-09-13T06:56:34;97772.50;;;18.62;100.00
54417;BME280;40326;51.220;7.250;2022-09-13T06:59:03;97777.28;;;18.57;100.00
54417;BME280;40326;51.220;7.250;2022-09-13T07:01:33;97769.25;;;18.70;100.00
54417;BME280;40326;51.220;7.250;2022-09-13T07:04:04;97766.75;;;19.06;100.00
54417;BME280;40326;51.220;7.250;2022-09-13T07:06:34;97761.00;;;19.47;100.00
54417;BME280;40326;51.220;7.250;2022-09-13T07:09:03;97768.56;;;19.68;100.00
54417;BME280;40326;51.220;7.250;2022-09-13T07:11:32;97761.84;;;19.83;100.00
54417;BME280;40326;51.220;7.250;2022-09-13T07:13:59;97761.75;;;19.40;100.00
54417;BME280;40326;51.220;7.250;2022-09-13T07:16:27;97766.00;;;19.59;100.00
54417;BME280;40326;51.220;7.250;2022-09-13T07:18:55;97761.53;;;19.33;100.00
54417;BME280;40326;51.220;7.250;2022-09-13T07:21:21;97762.66;;;19.48;100.00
54417;BME280;40326;51.220;7.250;2022-09-13T07:23:47;97765.75;;;19.34;100.00
54417;BME280;40326;51.220;7.250;2022-09-13T07:26:13;97762.66;;;19.48;100.00
54417;BME280;40326;51.220;7.250;2022-09-13T07:28:41;97755.41;;;19.52;100.00
54417;BME280;40326;51.220;7.250;2022-09-13T07:33:38;97756.22;;;19.52;100.00
54417;BME280;40326;51.220;7.250;2022-09-13T07:36:04;97753.72;;;19.61;100.00
54417;BME280;40326;51.220;7.250;2022-09-13T07:38:34;97756.06;;;19.90;100.00
54417;BME280;40326;51.220;7.250;2022-09-13T07:41:01;97758.09;;;20.04;100.00
54417;BME280;40326;51.220;7.250;2022-09-13T07:43:27;97763.59;;;20.19;100.00
54417;BME280;40326;51.220;7.250;2022-09-13T07:46:28;97751.94;;;20.31;100.00
54417;BME280;40326;51.220;7.250;2022-09-13T07:48:58;97761.56;;;20.04;100.00
54417;BME280;40326;51.220;7.250;2022-09-13T07:51:26;97764.13;;;20.48;100.00
54417;BME280;40326;51.220;7.250;2022-09-13T07:53:55;97770.13;;;20.23;100.00
54417;BME280;40326;51.220;7.250;2022-09-13T07:56:23;97768.75;;;20.62;100.00
54417;BME280;40326;51.220;7.250;2022-09-13T07:58:49;97766.75;;;20.56;100.00
54417;BME280;40326;51.220;7.250;2022-09-13T08:01:18;97777.00;;;20.92;100.00
54417;BME280;40326;51.220;7.250;2022-09-13T08:03:44;97776.31;;;20.82;100.00
54417;BME280;40326;51.220;7.250;2022-09-13T08:06:14;97775.38;;;20.91;100.00
54417;BME280;40326;51.220;7.250;2022-09-13T08:08:39;97775.03;;;20.78;100.00
54417;BME280;40326;51.220;7.250;2022-09-13T08:11:05;97779.19;;;21.05;100.00
54417;BME280;40326;51.220;7.250;2022-09-13T08:13:31;97778.09;;;20.81;100.00
54417;BME280;40326;51.220;7.250;2022-09-13T08:16:03;97774.53;;;21.24;100.00
54417;BME280;40326;51.220;7.250;2022-09-13T08:18:30;97772.81;;;20.99;100.00
54417;BME280;40326;51.220;7.250;2022-09-13T08:20:56;97771.06;;;21.08;100.00
54417;BME280;40326;51.220;7.250;2022-09-13T08:23:22;97771.28;;;21.22;100.00
54417;BME280;40326;51.220;7.250;2022-09-13T08:25:48;97779.72;;;21.16;100.00
54417;BME280;40326;51.220;7.250;2022-09-13T08:28:15;97767.97;;;21.71;100.00
54417;BME280;40326;51.220;7.250;2022-09-13T08:30:41;97763.75;;;21.94;100.00
54417;BME280;40326;51.220;7.250;2022-09-13T08:33:08;97771.75;;;21.93;100.00
54417;BME280;40326;51.220;7.250;2022-09-13T08:35:34;97766.50;;;22.25;100.00
54417;BME280;40326;51.220;7.250;2022-09-13T08:38:00;97774.97;;;21.78;100.00
54417;BME280;40326;51.220;7.250;2022-09-13T08:40:50;97763.59;;;22.12;100.00
54417;BME280;40326;51.220;7.250;2022-09-13T08:44:19;97766.16;;;21.63;100.00
54417;BME280;40326;51.220;7.250;2022-09-13T08:46:33;97765.88;;;22.31;100.00
54417;BME280;40326;51.220;7.250;2022-09-13T08:49:03;97752.66;;;22.33;100.00
54417;BME280;40326;51.220;7.250;2022-09-13T08:51:40;97755.09;;;22.26;100.00
54417;BME280;40326;51.220;7.250;2022-09-13T08:54:15;97756.91;;;21.69;100.00
54417;BME280;40326;51.220;7.250;2022-09-13T08:56:58;97751.66;;;22.01;100.00
54417;BME280;40326;51.220;7.250;2022-09-13T09:02:43;97750.00;;;22.57;100.00
54417;BME280;40326;51.220;7.250;2022-09-13T09:05:18;97745.94;;;22.47;100.00
54417;BME280;40326;51.220;7.250;2022-09-13T09:07:51;97745.00;;;21.74;100.00
54417;BME280;40326;51.220;7.250;2022-09-13T09:10:21;97749.56;;;21.72;100.00
54417;BME280;40326;51.220;7.250;2022-09-13T09:15:28;97746.16;;;21.96;100.00
54417;BME280;40326;51.220;7.250;2022-09-13T09:23:22;97752.31;;;23.31;100.00
54417;BME280;40326;51.220;7.250;2022-09-13T09:26:09;97752.16;;;23.24;100.00
54417;BME280;40326;51.220;7.250;2022-09-13T09:28:35;97755.31;;;23.42;100.00
54417;BME280;40326;51.220;7.250;2022-09-13T09:31:08;97750.31;;;23.33;100.00
54417;BME280;40326;51.220;7.250;2022-09-13T09:38:48;97746.88;;;23.86;100.00
54417;BME280;40326;51.220;7.250;2022-09-13T09:46:20;97740.31;;;23.36;100.00
54417;BME280;40326;51.220;7.250;2022-09-13T09:48:54;97743.25;;;23.41;100.00
54417;BME280;40326;51.220;7.250;2022-09-13T09:51:22;97751.19;;;22.94;100.00
54417;BME280;40326;51.220;7.250;2022-09-13T09:53:54;97746.94;;;23.24;100.00
54417;BME280;40326;51.220;7.250;2022-09-13T09:56:27;97747.53;;;23.34;100.00
54417;BME280;40326;51.220;7.250;2022-09-13T09:58:56;97751.91;;;23.73;100.00
54417;BME280;40326;51.220;7.250;2022-09-13T10:01:28;97746.44;;;24.35;100.00
54417;BME280;40326;51.220;7.250;2022-09-13T10:04:04;97739.38;;;24.21;100.00
54417;BME280;40326;51.220;7.250;2022-09-13T10:06:34;97736.63;;;24.52;100.00
54417;BME280;40326;51.220;7.250;2022-09-13T10:09:03;97741.53;;;23.57;100.00
54417;BME280;40326;51.220;7.250;2022-09-13T10:12:00;97730.56;;;23.61;100.00
54417;BME280;40326;51.220;7.250;2022-09-13T10:14:41;97730.97;;;24.11;100.00
54417;BME280;40326;51.220;7.250;2022-09-13T10:17:20;97731.31;;;24.07;100.00
54417;BME280;40326;51.220;7.250;2022-09-13T10:19:56;97733.88;;;23.78;100.00
54417;BME280;40326;51.220;7.250;2022-09-13T10:22:27;97722.72;;;24.66;100.00
54417;BME280;40326;51.220;7.250;2022-09-13T10:24:53;97732.84;;;24.40;100.00
54417;BME280;40326;51.220;7.250;2022-09-13T10:27:27;97734.72;;;24.60;100.00
54417;BME280;40326;51.220;7.250;2022-09-13T10:29:55;97729.75;;;23.98;100.00
54417;BME280;40326;51.220;7.250;2022-09-13T10:32:25;97726.25;;;24.58;100.00
54417;BME280;40326;51.220;7.250;2022-09-13T10:34:51;97726.09;;;25.11;100.00
54417;BME280;40326;51.220;7.250;2022-09-13T10:37:28;97719.66;;;25.50;100.00
54417;BME280;40326;51.220;7.250;2022-09-13T10:40:10;97721.91;;;25.74;100.00
54417;BME280;40326;51.220;7.250;2022-09-13T10:42:37;97722.47;;;25.48;100.00
54417;BME280;40326;51.220;7.250;2022-09-13T10:47:32;97737.88;;;24.71;100.00
54417;BME280;40326;51.220;7.250;2022-09-13T10:50:19;97734.97;;;25.10;100.00
54417;BME280;40326;51.220;7.250;2022-09-13T10:52:50;97723.69;;;25.52;100.00
54417;BME280;40326;51.220;7.250;2022-09-13T11:00:11;97721.75;;;25.18;100.00
54417;BME280;40326;51.220;7.250;2022-09-13T11:05:28;97711.72;;;25.22;100.00
54417;BME280;40326;51.220;7.250;2022-09-13T11:13:59;97710.47;;;25.60;100.00
54417;BME280;40326;51.220;7.250;2022-09-13T11:25:02;97697.44;;;24.29;100.00
54417;BME280;40326;51.220;7.250;2022-09-13T11:30:13;97708.31;;;25.06;100.00
54417;BME280;40326;51.220;7.250;2022-09-13T11:35:35;97697.97;;;24.24;100.00
54417;BME280;40326;51.220;7.250;2022-09-13T11:38:14;97701.50;;;23.79;100.00
54417;BME280;40326;51.220;7.250;2022-09-13T11:52:19;97689.44;;;24.45;100.00
54417;BME280;40326;51.220;7.250;2022-09-13T11:57:24;97681.63;;;24.81;100.00
54417;BME280;40326;51.220;7.250;2022-09-13T12:00:02;97678.31;;;24.43;100.00
54417;BME280;40326;51.220;7.250;2022-09-13T12:02:39;97670.56;;;25.37;100.00
54417;BME280;40326;51.220;7.250;2022-09-13T12:05:14;97677.22;;;24.82;100.00
54417;BME280;40326;51.220;7.250;2022-09-13T12:07:44;97665.84;;;25.32;100.00
54417;BME280;40326;51.220;7.250;2022-09-13T12:12:47;97675.88;;;24.56;100.00
54417;BME280;40326;51.220;7.250;2022-09-13T12:15:16;97665.31;;;24.65;100.00
54417;BME280;40326;51.220;7.250;2022-09-13T12:17:48;97663.84;;;24.77;100.00
54417;BME280;40326;51.220;7.250;2022-09-13T12:20:30;97657.38;;;24.28;100.00
54417;BME280;40326;51.220;7.250;2022-09-13T12:23:00;97652.25;;;24.20;100.00
54417;BME280;40326;51.220;7.250;2022-09-13T12:25:36;97655.56;;;24.58;100.00
54417;BME280;40326;51.220;7.250;2022-09-13T12:28:11;97660.94;;;24.36;100.00
54417;BME280;40326;51.220;7.250;2022-09-13T12:30:51;97665.22;;;24.58;100.00
54417;BME280;40326;51.220;7.250;2022-09-13T12:33:18;97662.56;;;24.37;100.00
54417;BME280;40326;51.220;7.250;2022-09-13T12:35:52;97656.81;;;25.13;100.00
54417;BME280;40326;51.220;7.250;2022-09-13T12:44:24;97628.75;;;26.13;100.00
54417;BME280;40326;51.220;7.250;2022-09-13T12:47:04;97641.97;;;25.21;100.00
54417;BME280;40326;51.220;7.250;2022-09-13T12:52:33;97641.06;;;25.78;100.00
54417;BME280;40326;51.220;7.250;2022-09-13T13:03:13;97641.34;;;25.40;100.00
54417;BME280;40326;51.220;7.250;2022-09-13T13:05:46;97649.16;;;25.12;100.00
54417;BME280;40326;51.220;7.250;2022-09-13T13:10:41;97642.06;;;25.77;100.00
54417;BME280;40326;51.220;7.250;2022-09-13T13:13:19;97645.25;;;26.35;100.00
54417;BME280;40326;51.220;7.250;2022-09-13T13:18:21;97654.84;;;25.65;100.00
54417;BME280;40326;51.220;7.250;2022-09-13T13:21:03;97644.59;;;25.70;100.00
54417;BME280;40326;51.220;7.250;2022-09-13T13:23:37;97647.22;;;25.70;100.00
54417;BME280;40326;51.220;7.250;2022-09-13T13:28:50;97638.53;;;25.91;100.00
54417;BME280;40326;51.220;7.250;2022-09-13T13:36:43;97645.09;;;25.31;100.00
54417;BME280;40326;51.220;7.250;2022-09-13T13:39:34;97638.22;;;25.72;100.00
54417;BME280;40326;51.220;7.250;2022-09-13T13:42:32;97635.28;;;25.39;100.00
54417;BME280;40326;51.220;7.250;2022-09-13T13:45:24;97639.16;;;24.86;100.00
54417;BME280;40326;51.220;7.250;2022-09-13T13:48:10;97631.97;;;25.31;100.00
54417;BME280;40326;51.220;7.250;2022-09-13T13:51:16;97633.72;;;25.24;100.00
54417;BME280;40326;51.220;7.250;2022-09-13T13:53:45;97620.00;;;25.22;100.00
54417;BME280;40326;51.220;7.250;2022-09-13T13:56:19;97617.91;;;24.74;100.00
54417;BME280;40326;51.220;7.250;2022-09-13T13:58:50;97626.06;;;24.65;100.00
54417;BME280;40326;51.220;7.250;2022-09-13T14:01:25;97620.94;;;25.14;100.00
54417;BME280;40326;51.220;7.250;2022-09-13T14:07:03;97619.25;;;24.70;100.00
54417;BME280;40326;51.220;7.250;2022-09-13T14:12:53;97624.56;;;25.13;100.00
54417;BME280;40326;51.220;7.250;2022-09-13T14:18:06;97616.75;;;24.62;100.00
54417;BME280;40326;51.220;7.250;2022-09-13T14:20:35;97622.75;;;24.41;100.00
54417;BME280;40326;51.220;7.250;2022-09-13T14:23:17;97620.56;;;24.30;100.00
54417;BME280;40326;51.220;7.250;2022-09-13T14:25:43;97622.50;;;24.36;100.00
54417;BME280;40326;51.220;7.250;2022-09-13T14:28:13;97621.66;;;24.21;100.00
54417;BME280;40326;51.220;7.250;2022-09-13T14:30:43;97613.19;;;24.19;100.00
54417;BME280;40326;51.220;7.250;2022-09-13T14:33:22;97612.38;;;24.33;100.00
54417;BME280;40326;51.220;7.250;2022-09-13T14:35:59;97615.28;;;24.38;100.00
54417;BME280;40326;51.220;7.250;2022-09-13T14:38:28;97610.34;;;24.65;100.00
54417;BME280;40326;51.220;7.250;2022-09-13T14:41:02;97610.16;;;25.02;100.00
54417;BME280;40326;51.220;7.250;2022-09-13T14:43:35;97595.88;;;25.05;100.00
54417;BME280;40326;51.220;7.250;2022-09-13T14:46:07;97600.94;;;25.28;100.00
54417;BME280;40326;51.220;7.250;2022-09-13T14:51:33;97605.19;;;25.07;100.00
54417;BME280;40326;51.220;7.250;2022-09-13T14:54:08;97613.66;;;25.09;100.00
54417;BME280;40326;51.220;7.250;2022-09-13T14:56:40;97601.69;;;25.22;100.00
54417;BME280;40326;51.220;7.250;2022-09-13T14:59:30;97602.00;;;24.97;100.00
54417;BME280;40326;51.220;7.250;2022-09-13T15:01:57;97601.59;;;24.57;100.00
54417;BME280;40326;51.220;7.250;2022-09-13T15:04:28;97598.31;;;24.70;100.00
54417;BME280;40326;51.220;7.250;2022-09-13T15:07:08;97599.66;;;24.81;100.00
54417;BME280;40326;51.220;7.250;2022-09-13T15:09:40;97606.47;;;24.60;100.00
54417;BME280;40326;51.220;7.250;2022-09-13T15:12:21;97600.44;;;24.60;100.00
54417;BME280;40326;51.220;7.250;2022-09-13T15:14:46;97603.63;;;24.41;100.00
54417;BME280;40326;51.220;7.250;2022-09-13T15:17:12;97597.41;;;24.42;100.00
54417;BME280;40326;51.220;7.250;2022-09-13T15:19:48;97603.25;;;24.44;100.00
54417;BME280;40326;51.220;7.250;2022-09-13T15:22:21;97602.00;;;24.40;100.00
54417;BME280;40326;51.220;7.250;2022-09-13T15:24:53;97592.53;;;24.24;100.00
54417;BME280;40326;51.220;7.250;2022-09-13T15:27:43;97585.88;;;24.36;100.00
54417;BME280;40326;51.220;7.250;2022-09-13T15:30:26;97599.22;;;24.26;100.00
54417;BME280;40326;51.220;7.250;2022-09-13T15:35:42;97604.34;;;23.75;100.00
54417;BME280;40326;51.220;7.250;2022-09-13T15:38:30;97600.81;;;23.98;100.00
54417;BME280;40326;51.220;7.250;2022-09-13T15:41:17;97595.69;;;23.90;100.00
54417;BME280;40326;51.220;7.250;2022-09-13T15:43:42;97596.31;;;23.77;100.00
54417;BME280;40326;51.220;7.250;2022-09-13T15:46:13;97601.25;;;23.72;100.00